Time;durP1;ratioP1;P1;durP2;ratioP2;P2;SDS_P1;SDS_P2;PMS_P1;PMS_P2;Temp;Humidity;BMP_temperature;BMP_pressure;BME280_temperature;BME280_humidity;BME280_pressure;Samples;Min_cycle;Max_cycle;Signal;HPM_P1;HPM_P2
2021/01/05 00:01:16;;;;;;;23.27;13.75;;;1.30;99.90;;;;;;4976046;28;20030;-84
2021/01/05 00:03:42;;;;;;;20.60;13.63;;;1.20;99.90;;;;;;4974326;28;20046;-83
2021/01/05 00:06:08;;;;;;;23.80;13.40;;;1.20;99.90;;;;;;4974805;28;20026;-84
2021/01/05 00:08:33;;;;;;;20.17;12.75;;;1.30;99.90;;;;;;4975772;28;20352;-83
2021/01/05 00:10:59;;;;;;;22.15;13.38;;;1.30;99.90;;;;;;4975579;28;20023;-83
2021/01/05 00:13:25;;;;;;;20.52;13.05;;;1.30;99.90;;;;;;4974254;28;20031;-83
2021/01/05 00:15:50;;;;;;;23.52;13.07;;;1.30;99.90;;;;;;4974255;28;20142;-83
2021/01/05 00:18:17;;;;;;;20.73;12.75;;;1.30;99.90;;;;;;4975529;28;20082;-83
2021/01/05 00:20:42;;;;;;;21.75;12.20;;;1.30;99.90;;;;;;4973869;28;20398;-83
2021/01/05 00:23:08;;;;;;;20.05;11.52;;;1.30;99.90;;;;;;4974057;28;20023;-83
2021/01/05 00:25:34;;;;;;;17.95;11.18;;;1.30;99.90;;;;;;4974091;28;20022;-83
2021/01/05 00:28:00;;;;;;;19.05;11.07;;;1.30;99.90;;;;;;4975356;28;20027;-83
2021/01/05 00:30:27;;;;;;;21.17;11.77;;;1.30;99.90;;;;;;4990351;28;20422;-85
2021/01/05 00:32:54;;;;;;;18.80;11.52;;;1.40;99.90;;;;;;4974181;28;20037;-82
2021/01/05 00:35:28;;;;;;;18.52;11.52;;;1.40;99.90;;;;;;4973477;28;20077;-82
2021/01/05 00:37:54;;;;;;;15.65;9.98;;;1.40;99.90;;;;;;4973917;28;20390;-82
2021/01/05 00:40:22;;;;;;;16.20;10.65;;;1.40;99.90;;;;;;4973916;28;20031;-85
2021/01/05 00:42:49;;;;;;;16.25;9.75;;;1.30;99.90;;;;;;4973977;28;20038;-84
2021/01/05 00:45:21;;;;;;;14.65;9.32;;;1.30;99.90;;;;;;4975188;28;20541;-83
2021/01/05 00:47:47;;;;;;;16.30;9.98;;;1.20;99.90;;;;;;4974076;28;20034;-83
2021/01/05 00:50:14;;;;;;;18.27;10.07;;;1.30;99.90;;;;;;4973996;28;20438;-84
2021/01/05 00:52:40;;;;;;;17.08;9.98;;;1.30;99.90;;;;;;4974025;28;20034;-83
2021/01/05 00:55:06;;;;;;;18.02;10.77;;;1.20;99.90;;;;;;4974896;28;20031;-83
2021/01/05 00:57:32;;;;;;;16.92;10.02;;;1.20;99.90;;;;;;4973833;28;20065;-83
2021/01/05 00:59:58;;;;;;;13.40;9.05;;;1.10;99.90;;;;;;4973687;28;20047;-83
2021/01/05 01:02:23;;;;;;;17.10;9.32;;;1.20;99.90;;;;;;4974999;28;20023;-83
2021/01/05 01:04:49;;;;;;;18.25;10.52;;;1.20;99.90;;;;;;4975015;28;20375;-83
2021/01/05 01:07:15;;;;;;;13.73;8.55;;;1.30;99.90;;;;;;4975251;28;20029;-83
2021/01/05 01:09:40;;;;;;;15.93;9.45;;;1.30;99.90;;;;;;4973719;28;20023;-82
2021/01/05 01:12:12;;;;;;;16.58;10.02;;;1.30;99.90;;;;;;4973390;28;20027;-83
2021/01/05 01:14:38;;;;;;;13.23;8.95;;;1.30;99.90;;;;;;4989991;28;20125;-83
2021/01/05 01:17:04;;;;;;;15.55;9.43;;;1.30;99.90;;;;;;4975106;28;20101;-83
2021/01/05 01:19:30;;;;;;;17.45;9.35;;;1.30;99.90;;;;;;4973741;28;20054;-83
2021/01/05 01:21:55;;;;;;;16.13;8.90;;;1.30;99.90;;;;;;4974945;28;20027;-83
2021/01/05 01:24:23;;;;;;;16.55;10.18;;;1.30;99.90;;;;;;4973420;28;20023;-83
2021/01/05 01:26:49;;;;;;;15.32;9.02;;;1.30;99.90;;;;;;4974880;28;20065;-83
2021/01/05 01:29:20;;;;;;;15.60;9.00;;;1.40;99.90;;;;;;4973498;28;20054;-83
2021/01/05 01:31:46;;;;;;;15.30;9.43;;;1.30;99.90;;;;;;4973446;28;20031;-83
2021/01/05 01:34:20;;;;;;;16.55;9.38;;;1.40;99.90;;;;;;4974773;28;20034;-83
2021/01/05 01:37:07;;;;;;;15.63;9.02;;;1.40;99.90;;;;;;4973367;28;20082;-83
2021/01/05 01:39:34;;;;;;;16.33;8.82;;;1.40;99.90;;;;;;4974974;28;20035;-83
2021/01/05 01:42:03;;;;;;;17.45;9.90;;;1.40;99.90;;;;;;4973517;28;20127;-83
2021/01/05 01:44:32;;;;;;;15.40;9.93;;;1.40;99.90;;;;;;4973409;28;20031;-83
2021/01/05 01:47:08;;;;;;;19.55;10.52;;;1.50;99.90;;;;;;4975257;28;20027;-83
2021/01/05 01:49:34;;;;;;;18.33;10.32;;;1.40;99.90;;;;;;4976720;28;20051;-83
2021/01/05 01:52:01;;;;;;;19.50;10.27;;;1.50;99.90;;;;;;4976944;28;20089;-84
2021/01/05 01:55:09;;;;;;;16.45;9.85;;;1.40;99.90;;;;;;4976473;28;20115;-83
2021/01/05 01:57:53;;;;;;;17.48;10.52;;;1.40;99.90;;;;;;4976660;28;20023;-83
2021/01/05 02:00:47;;;;;;;16.73;10.35;;;1.40;99.90;;;;;;4977745;28;20113;-83
2021/01/05 02:03:25;;;;;;;17.20;9.75;;;1.40;99.90;;;;;;4976543;28;20038;-83
2021/01/05 02:06:20;;;;;;;16.55;9.88;;;1.50;99.90;;;;;;4977661;28;20029;-83
2021/01/05 02:08:52;;;;;;;;;;;1.50;99.90;;;;;;4961062;28;20039;-83
2021/01/05 02:11:36;;;;;;;19.98;11.00;;;1.40;99.90;;;;;;4976615;28;20346;-83
2021/01/05 02:14:27;;;;;;;15.63;8.82;;;1.50;99.90;;;;;;4977862;28;20105;-83
2021/01/05 02:16:56;;;;;;;18.10;10.32;;;1.50;99.90;;;;;;4976321;28;20130;-81
2021/01/05 02:19:38;;;;;;;15.80;9.93;;;1.40;99.90;;;;;;4992358;28;20030;-83
2021/01/05 02:22:22;;;;;;;18.65;11.00;;;1.50;99.90;;;;;;4976031;28;20033;-83
2021/01/05 02:25:10;;;;;;;19.60;11.68;;;1.40;99.90;;;;;;4992988;28;20023;-82
2021/01/05 02:27:44;;;;;;;18.23;11.27;;;1.40;99.90;;;;;;4977465;28;20050;-83
2021/01/05 02:30:12;;;;;;;20.85;11.98;;;1.40;99.90;;;;;;4976180;28;20035;-83
2021/01/05 02:33:00;;;;;;;21.15;11.98;;;1.50;99.90;;;;;;4975844;28;20127;-83
2021/01/05 02:36:06;;;;;;;20.83;11.68;;;1.40;99.90;;;;;;4975925;28;20498;-83
2021/01/05 02:38:53;;;;;;;21.52;11.77;;;1.40;99.90;;;;;;4992156;28;20027;-83
2021/01/05 02:41:51;;;;;;;20.17;11.15;;;1.40;99.90;;;;;;4976971;28;20038;-83
2021/01/05 02:44:38;;;;;;;21.75;12.13;;;1.50;99.90;;;;;;4944221;28;20031;-83
2021/01/05 02:47:23;;;;;;;18.90;11.52;;;1.40;99.90;;;;;;4991828;28;20031;-83
2021/01/05 02:49:56;;;;;;;;;;;1.50;99.90;;;;;;4975977;28;20019;-83
2021/01/05 02:52:53;;;;;;;25.42;12.77;;;1.50;99.90;;;;;;4975694;28;19909;-83
2021/01/05 02:55:58;;;;;;;20.42;12.63;;;1.40;99.90;;;;;;4991787;28;20482;-83
2021/01/05 02:58:56;;;;;;;21.33;13.35;;;1.40;99.90;;;;;;4975313;28;20126;-83
2021/01/05 03:01:39;;;;;;;23.60;13.23;;;1.50;99.90;;;;;;4956032;28;20030;-83
2021/01/05 03:04:05;;;;;;;20.60;11.88;;;1.70;99.90;;;;;;4992096;28;20037;-83
2021/01/05 03:06:39;;;;;;;24.80;14.30;;;1.60;99.90;;;;;;4976692;28;20019;-83
2021/01/05 03:09:44;;;;;;;21.55;12.07;;;1.50;99.90;;;;;;4991469;28;20386;-83
2021/01/05 03:12:28;;;;;;;22.30;12.10;;;1.50;99.90;;;;;;4971792;28;20027;-83
2021/01/05 03:15:15;;;;;;;21.75;12.95;;;1.50;99.90;;;;;;4991522;28;20122;-81
2021/01/05 03:17:49;;;;;;;21.65;12.75;;;1.50;99.90;;;;;;4975498;28;20027;-83
2021/01/05 03:20:24;;;;;;;;;;;1.50;99.90;;;;;;4975483;28;20078;-83
2021/01/05 03:23:01;;;;;;;23.02;13.73;;;1.40;99.90;;;;;;4974975;28;19906;-82
2021/01/05 03:25:30;;;;;;;20.63;12.63;;;1.40;99.90;;;;;;4976286;28;20030;-83
2021/01/05 03:27:59;;;;;;;21.52;13.15;;;1.40;99.90;;;;;;4976012;28;20517;-83
2021/01/05 03:30:46;;;;;;;20.52;11.70;;;1.50;99.90;;;;;;4974983;28;20125;-83
2021/01/05 03:33:12;;;;;;;24.58;13.27;;;1.60;99.90;;;;;;4974874;28;20039;-83
2021/01/05 03:35:38;;;;;;;21.10;13.00;;;1.70;99.90;;;;;;4975228;28;20070;-83
2021/01/05 03:38:04;;;;;;;23.60;13.85;;;1.70;99.90;;;;;;4974890;28;20027;-83
2021/01/05 03:40:30;;;;;;;24.63;13.75;;;1.50;99.90;;;;;;4975838;28;20035;-83
2021/01/05 03:42:55;;;;;;;23.00;13.98;;;1.40;99.90;;;;;;4975789;28;20499;-84
2021/01/05 03:45:31;;;;;;;23.23;13.15;;;1.40;99.90;;;;;;4974733;28;20061;-83
2021/01/05 03:47:58;;;;;;;21.52;12.90;;;1.40;99.90;;;;;;4974694;28;20470;-83
2021/01/05 03:50:24;;;;;;;27.88;14.50;;;1.50;99.90;;;;;;4974375;28;20097;-83
2021/01/05 03:52:49;;;;;;;23.55;14.13;;;1.40;99.90;;;;;;4975155;28;20023;-83
2021/01/05 03:55:17;;;;;;;24.92;13.55;;;1.40;99.90;;;;;;4975117;28;20080;-83
2021/01/05 03:57:43;;;;;;;23.80;14.35;;;1.30;99.90;;;;;;4974575;28;20061;-83
2021/01/05 04:00:26;;;;;;;23.45;14.48;;;1.30;99.90;;;;;;4974271;28;20086;-83
2021/01/05 04:02:54;;;;;;;23.10;13.10;;;1.50;99.90;;;;;;4974359;28;20022;-83
2021/01/05 04:05:20;;;;;;;20.73;12.65;;;1.60;99.90;;;;;;4975577;28;20493;-83
2021/01/05 04:07:46;;;;;;;22.00;13.25;;;1.70;99.90;;;;;;4975602;28;20023;-83
2021/01/05 04:10:12;;;;;;;29.33;15.73;;;1.70;99.90;;;;;;4973472;28;20030;-83
2021/01/05 04:12:38;;;;;;;26.15;15.40;;;1.60;99.90;;;;;;4975394;28;20035;-83
2021/01/05 04:15:07;;;;;;;29.02;16.50;;;1.50;99.90;;;;;;4974180;28;20066;-83
2021/01/05 04:17:33;;;;;;;27.10;16.10;;;1.40;99.90;;;;;;4975331;28;20031;-83
2021/01/05 04:19:58;;;;;;;24.35;14.77;;;1.40;99.90;;;;;;4973860;28;20121;-83
2021/01/05 04:22:24;;;;;;;33.03;18.17;;;1.50;99.90;;;;;;4974047;28;20027;-83
2021/01/05 04:24:50;;;;;;;24.85;13.63;;;1.40;99.90;;;;;;4973979;28;20497;-83
2021/01/05 04:27:16;;;;;;;28.88;16.73;;;1.50;99.90;;;;;;4973864;28;20093;-83
2021/01/05 04:29:41;;;;;;;23.48;15.20;;;1.60;99.90;;;;;;4973808;28;20110;-82
2021/01/05 04:32:07;;;;;;;22.08;13.63;;;1.60;99.90;;;;;;4973926;28;20027;-83
2021/01/05 04:34:33;;;;;;;26.27;15.15;;;1.50;99.90;;;;;;4975180;28;20041;-83
2021/01/05 04:36:58;;;;;;;26.67;14.45;;;1.60;99.90;;;;;;4975000;28;20479;-83
2021/01/05 04:39:24;;;;;;;22.95;13.65;;;1.50;99.90;;;;;;4974023;28;20033;-84
2021/01/05 04:42:01;;;;;;;23.65;14.18;;;1.60;99.90;;;;;;4973778;28;20467;-83
2021/01/05 04:44:30;;;;;;;35.00;18.88;;;1.60;99.90;;;;;;4989978;28;20023;-83
2021/01/05 04:47:03;;;;;;;35.97;19.73;;;1.60;99.90;;;;;;4973927;28;20493;-83
2021/01/05 04:49:44;;;;;;;34.15;18.17;;;1.40;99.90;;;;;;4973825;28;20118;-83
2021/01/05 04:52:13;;;;;;;33.13;17.48;;;1.30;99.90;;;;;;4989968;28;20027;-83
2021/01/05 04:54:41;;;;;;;39.78;20.25;;;1.40;99.90;;;;;;4973706;28;20078;-83
2021/01/05 04:57:12;;;;;;;32.28;19.10;;;1.30;99.90;;;;;;4975121;28;20027;-83
2021/01/05 05:00:07;;;;;;;34.03;18.70;;;1.40;99.90;;;;;;4975478;28;20065;-83
2021/01/05 05:02:56;;;;;;;35.00;19.08;;;1.30;99.90;;;;;;4973770;28;20144;-83
2021/01/05 05:05:34;;;;;;;36.38;17.80;;;1.30;99.90;;;;;;4990014;28;20477;-83
2021/01/05 05:08:41;;;;;;;41.67;21.52;;;1.30;99.90;;;;;;4990104;28;20230;-82
2021/01/05 05:11:11;;;;;;;31.25;17.88;;;1.40;99.90;;;;;;4970569;28;20030;-83
2021/01/05 05:14:04;;;;;;;39.78;21.17;;;1.30;99.90;;;;;;4974065;28;20027;-83
2021/01/05 05:16:48;;;;;;;33.38;18.50;;;1.40;99.90;;;;;;4973518;28;20112;-83
2021/01/05 05:19:47;;;;;;;39.83;21.95;;;1.50;99.90;;;;;;4974887;28;20031;-83
2021/01/05 05:22:23;;;;;;;34.50;18.55;;;1.50;99.90;;;;;;4954209;28;20125;-83
2021/01/05 05:25:02;;;;;;;42.63;21.83;;;1.40;99.90;;;;;;4977228;28;20027;-83
2021/01/05 05:27:54;;;;;;;36.78;20.35;;;1.30;99.90;;;;;;4978659;28;20027;-83
2021/01/05 05:30:35;;;;;;;39.53;20.63;;;1.40;99.90;;;;;;4970854;28;20031;-83
2021/01/05 05:33:05;;;;;;;41.45;22.50;;;1.40;99.90;;;;;;4977214;28;20570;-83
2021/01/05 05:35:40;;;;;;;39.45;20.95;;;1.40;99.90;;;;;;4977030;28;20046;-83
2021/01/05 05:38:11;;;;;;;35.30;20.85;;;1.40;99.90;;;;;;4978296;28;20382;-83
2021/01/05 05:40:49;;;;;;;36.13;20.23;;;1.40;99.90;;;;;;4977276;28;20453;-83
2021/01/05 05:43:20;;;;;;;38.83;21.40;;;1.40;99.90;;;;;;4993126;28;20015;-83
2021/01/05 05:45:53;;;;;;;32.72;19.38;;;1.30;99.90;;;;;;4993207;28;20077;-84
2021/01/05 05:48:34;;;;;;;36.40;19.40;;;1.40;99.90;;;;;;4976992;28;20030;-84
2021/01/05 05:51:25;;;;;;;38.15;20.40;;;1.50;99.90;;;;;;4992968;28;20026;-83
2021/01/05 05:53:53;;;;;;;33.75;19.65;;;1.60;99.90;;;;;;4992950;28;20113;-83
2021/01/05 05:56:33;;;;;;;34.75;20.17;;;1.60;99.90;;;;;;4976950;28;20023;-83
2021/01/05 05:59:01;;;;;;;37.75;19.92;;;1.50;99.90;;;;;;4977935;28;20378;-83
2021/01/05 06:01:32;;;;;;;43.20;23.02;;;1.40;99.90;;;;;;4975756;28;20030;-83
2021/01/05 06:03:59;;;;;;;48.67;24.45;;;1.50;99.90;;;;;;4975802;28;20121;-83
2021/01/05 06:06:25;;;;;;;44.35;23.50;;;1.50;99.90;;;;;;4975772;28;20437;-83
2021/01/05 06:08:51;;;;;;;39.15;20.55;;;1.60;99.90;;;;;;4975805;28;20474;-83
2021/01/05 06:11:17;;;;;;;42.45;22.55;;;1.50;99.90;;;;;;4975624;28;20023;-83
2021/01/05 06:13:42;;;;;;;40.63;22.77;;;1.60;99.90;;;;;;4975689;28;20512;-82
2021/01/05 06:16:10;;;;;;;36.28;20.50;;;1.60;99.90;;;;;;4976827;28;20027;-82
2021/01/05 06:18:36;;;;;;;44.03;24.15;;;1.60;99.90;;;;;;4976827;28;20038;-83
2021/01/05 06:21:02;;;;;;;45.97;23.73;;;1.50;99.90;;;;;;4976723;28;20038;-82
2021/01/05 06:23:28;;;;;;;40.33;21.52;;;1.40;99.90;;;;;;4976637;28;20023;-82
2021/01/05 06:25:53;;;;;;;37.30;20.25;;;1.30;99.90;;;;;;4976665;28;20037;-82
2021/01/05 06:28:19;;;;;;;38.35;22.00;;;1.50;99.90;;;;;;4975428;28;20094;-83
2021/01/05 06:30:45;;;;;;;39.90;21.92;;;1.50;99.90;;;;;;4976595;28;20023;-83
2021/01/05 06:33:11;;;;;;;46.72;24.48;;;1.60;99.90;;;;;;4974689;28;20475;-83
2021/01/05 06:35:37;;;;;;;40.70;22.25;;;1.50;99.90;;;;;;4975126;28;20047;-83
2021/01/05 06:38:03;;;;;;;37.70;20.30;;;1.50;99.90;;;;;;4975213;28;20501;-83
2021/01/05 06:40:28;;;;;;;44.78;24.23;;;1.70;99.90;;;;;;4975122;28;20378;-83
2021/01/05 06:42:55;;;;;;;43.08;22.70;;;1.70;99.90;;;;;;4975118;28;20023;-83
2021/01/05 06:45:24;;;;;;;40.40;22.95;;;1.70;99.90;;;;;;4991232;28;20039;-83
2021/01/05 06:47:50;;;;;;;43.50;24.08;;;1.60;99.90;;;;;;4975024;28;20105;-83
2021/01/05 06:50:16;;;;;;;37.95;21.25;;;1.50;99.90;;;;;;4976249;28;20031;-83
2021/01/05 06:52:42;;;;;;;38.80;21.67;;;1.50;99.90;;;;;;4974928;28;20030;-83
2021/01/05 06:55:09;;;;;;;45.20;23.77;;;1.60;99.90;;;;;;4974893;28;20023;-83
2021/01/05 06:57:35;;;;;;;50.58;25.65;;;1.50;99.90;;;;;;4976140;28;20026;-83
2021/01/05 07:00:01;;;;;;;35.95;20.75;;;1.40;99.90;;;;;;4992929;28;20386;-91
2021/01/05 07:02:27;;;;;;;39.80;21.52;;;1.50;99.90;;;;;;4976739;28;20031;-91
2021/01/05 07:04:52;;;;;;;40.35;23.38;;;1.60;99.90;;;;;;4976583;28;20075;-93
2021/01/05 07:07:18;;;;;;;47.67;24.67;;;1.60;99.90;;;;;;4977317;28;20093;-92
2021/01/05 07:09:44;;;;;;;44.58;23.10;;;1.50;99.90;;;;;;4976306;28;20389;-92
2021/01/05 07:12:10;;;;;;;37.72;21.23;;;1.60;99.90;;;;;;4977026;28;20058;-92
2021/01/05 07:14:36;;;;;;;41.00;21.73;;;1.60;99.90;;;;;;4975996;28;20490;-91
2021/01/05 07:17:01;;;;;;;40.70;22.80;;;1.90;99.90;;;;;;4978307;28;20027;-92
2021/01/05 07:19:27;;;;;;;39.85;21.90;;;2.00;99.90;;;;;;4976504;28;20034;-90
2021/01/05 07:21:53;;;;;;;41.92;22.88;;;2.10;99.90;;;;;;4976443;28;20505;-91
2021/01/05 07:24:18;;;;;;;43.30;23.25;;;2.10;99.90;;;;;;4975710;28;20018;-91
2021/01/05 07:26:49;;;;;;;38.33;20.25;;;2.00;99.90;;;;;;4975591;28;20030;-91
2021/01/05 07:29:17;;;;;;;40.55;21.75;;;2.00;99.90;;;;;;4975055;28;20118;-92
2021/01/05 07:31:43;;;;;;;39.63;21.48;;;2.10;99.90;;;;;;4975925;28;20110;-91
2021/01/05 07:34:10;;;;;;;45.53;23.75;;;2.20;99.90;;;;;;4975783;28;20122;-91
2021/01/05 07:36:40;;;;;;;42.55;23.20;;;2.10;99.90;;;;;;4975730;28;20047;-91
2021/01/05 07:39:20;;;;;;;46.20;23.23;;;2.00;99.90;;;;;;4976805;28;20034;-93
2021/01/05 07:41:47;;;;;;;50.70;24.45;;;2.00;99.90;;;;;;4976031;28;20034;-91
2021/01/05 07:44:14;;;;;;;43.58;23.25;;;1.90;99.90;;;;;;4974637;28;20027;-91
2021/01/05 07:46:39;;;;;;;41.60;23.38;;;1.90;99.90;;;;;;4976391;28;20049;-91
2021/01/05 07:49:05;;;;;;;38.25;20.98;;;2.00;99.90;;;;;;4975681;28;20479;-91
2021/01/05 07:51:31;;;;;;;40.15;21.55;;;2.20;99.90;;;;;;4975401;28;20125;-92
2021/01/05 07:53:57;;;;;;;36.95;21.92;;;2.20;99.90;;;;;;4975761;28;20029;-91
2021/01/05 07:56:22;;;;;;;42.13;23.38;;;2.20;99.90;;;;;;4975447;28;20054;-92
2021/01/05 07:58:48;;;;;;;45.67;24.40;;;2.10;99.90;;;;;;4976921;28;20026;-92
2021/01/05 08:01:14;;;;;;;50.13;25.85;;;2.20;99.90;;;;;;4991373;28;20039;-92
2021/01/05 08:03:39;;;;;;;41.05;23.48;;;2.10;99.90;;;;;;4976546;28;20030;-91
2021/01/05 08:06:07;;;;;;;48.22;24.58;;;1.90;99.90;;;;;;4975126;28;20019;-90
2021/01/05 08:08:33;;;;;;;43.65;21.60;;;2.00;99.90;;;;;;4975415;28;20129;-92
2021/01/05 08:10:58;;;;;;;41.55;21.80;;;2.00;99.90;;;;;;4974914;28;20046;-90
2021/01/05 08:13:24;;;;;;;40.20;22.48;;;2.00;99.90;;;;;;4975135;28;20034;-90
2021/01/05 08:15:50;;;;;;;46.90;25.02;;;2.10;99.90;;;;;;4975928;28;20067;-90
2021/01/05 08:18:16;;;;;;;43.92;23.42;;;2.00;99.90;;;;;;4976356;28;20031;-92
2021/01/05 08:20:41;;;;;;;41.92;22.52;;;2.00;99.90;;;;;;4975337;28;20037;-91
2021/01/05 08:23:07;;;;;;;42.30;23.17;;;2.00;99.90;;;;;;4974653;28;20057;-91
2021/01/05 08:25:33;;;;;;;50.03;23.88;;;2.00;99.90;;;;;;4975165;28;20018;-90
2021/01/05 08:28:01;;;;;;;38.35;21.05;;;2.00;99.90;;;;;;4976253;28;20046;-90
2021/01/05 08:30:33;;;;;;;36.85;20.67;;;2.20;99.90;;;;;;4975396;28;20030;-91
2021/01/05 08:33:17;;;;;;;42.70;22.90;;;2.20;99.90;;;;;;4975979;28;20037;-91
2021/01/05 08:35:47;;;;;;;44.53;23.52;;;2.10;99.90;;;;;;4974762;28;20526;-91
2021/01/05 08:38:13;;;;;;;45.67;24.33;;;1.90;99.90;;;;;;4975260;28;20066;-91
2021/01/05 08:40:39;;;;;;;52.13;26.33;;;1.90;99.90;;;;;;4974344;28;20121;-91
2021/01/05 08:43:09;;;;;;;46.95;23.65;;;1.80;99.90;;;;;;4974503;28;20057;-90
2021/01/05 08:45:35;;;;;;;40.85;22.67;;;1.80;99.90;;;;;;4974240;28;20538;-92
2021/01/05 08:48:01;;;;;;;43.33;23.08;;;1.80;99.90;;;;;;4976808;28;20023;-93
2021/01/05 08:50:30;;;;;;;49.70;24.98;;;1.90;99.90;;;;;;4975585;28;20158;-93
2021/01/05 08:53:01;;;;;;;44.60;23.63;;;1.90;99.90;;;;;;4975678;28;20022;-92
2021/01/05 08:55:27;;;;;;;46.92;23.92;;;1.90;99.90;;;;;;4976002;28;20035;-92
2021/01/05 08:57:53;;;;;;;49.08;25.80;;;1.90;99.90;;;;;;4979021;28;20482;-93
2021/01/05 09:00:20;;;;;;;54.72;31.63;;;1.90;99.90;;;;;;4978917;28;20027;-91
2021/01/05 09:02:46;;;;;;;45.50;23.35;;;1.80;99.90;;;;;;4979547;28;20524;-92
2021/01/05 09:05:12;;;;;;;37.67;20.98;;;1.90;99.90;;;;;;4980002;28;20031;-92
2021/01/05 09:07:38;;;;;;;36.28;20.70;;;2.00;99.90;;;;;;4981341;28;20031;-93
2021/01/05 09:10:06;;;;;;;35.90;20.95;;;2.10;99.90;;;;;;4979278;28;20475;-93
2021/01/05 09:12:36;;;;;;;39.42;21.33;;;2.00;99.90;;;;;;4978885;28;20027;-92
2021/01/05 09:15:05;;;;;;;38.42;21.52;;;2.00;99.90;;;;;;4979040;28;20050;-91
2021/01/05 09:17:31;;;;;;;40.78;21.73;;;2.00;99.90;;;;;;4979607;28;20023;-92
2021/01/05 09:19:57;;;;;;;35.47;21.20;;;2.00;99.90;;;;;;4981146;28;20479;-91
2021/01/05 09:22:25;;;;;;;35.58;20.27;;;2.10;99.90;;;;;;4978977;28;20054;-92
2021/01/05 09:24:51;;;;;;;35.45;19.73;;;2.20;99.90;;;;;;4979209;28;20081;-91
2021/01/05 09:27:17;;;;;;;36.35;20.42;;;2.20;99.90;;;;;;4979614;28;20027;-90
2021/01/05 09:29:43;;;;;;;34.85;20.73;;;2.30;99.90;;;;;;4977675;28;20430;-91
2021/01/05 09:32:09;;;;;;;36.72;20.45;;;2.20;99.90;;;;;;4978579;28;20034;-92
2021/01/05 09:34:35;;;;;;;37.20;20.45;;;2.10;99.90;;;;;;4978731;28;20027;-91
2021/01/05 09:37:04;;;;;;;39.83;21.10;;;2.10;99.90;;;;;;4978186;28;20109;-92
2021/01/05 09:39:30;;;;;;;40.15;21.35;;;2.00;99.90;;;;;;4979339;28;20479;-91
2021/01/05 09:41:59;;;;;;;35.03;18.55;;;2.00;99.90;;;;;;4978601;28;20027;-91
2021/01/05 09:44:25;;;;;;;30.42;18.42;;;2.10;99.90;;;;;;4978552;28;20030;-92
2021/01/05 09:46:51;;;;;;;32.45;19.35;;;2.20;99.90;;;;;;4978685;28;20023;-92
2021/01/05 09:49:18;;;;;;;34.72;19.08;;;2.20;99.90;;;;;;4979161;28;20023;-92
2021/01/05 09:51:44;;;;;;;34.13;19.08;;;2.20;99.90;;;;;;4978159;28;20035;-92
2021/01/05 09:54:10;;;;;;;37.72;19.60;;;2.10;99.90;;;;;;4979659;28;20030;-91
2021/01/05 09:56:36;;;;;;;32.88;19.00;;;2.10;99.90;;;;;;4978053;28;20117;-89
2021/01/05 09:59:02;;;;;;;32.28;19.73;;;2.10;99.90;;;;;;4978087;28;20065;-92
2021/01/05 10:01:30;;;;;;;33.10;19.05;;;2.10;99.90;;;;;;4978370;28;20031;-92
2021/01/05 10:03:56;;;;;;;29.80;17.88;;;2.10;99.90;;;;;;4977905;28;20023;-90
2021/01/05 10:06:31;;;;;;;27.00;17.67;;;2.00;99.90;;;;;;4978123;28;20078;-92
2021/01/05 10:08:57;;;;;;;33.88;19.73;;;2.10;99.90;;;;;;4977928;28;20029;-92
2021/01/05 10:11:30;;;;;;;34.65;18.60;;;2.10;99.90;;;;;;4977575;28;20042;-90
2021/01/05 10:13:55;;;;;;;38.53;19.88;;;2.10;99.90;;;;;;4979028;28;20029;-91
2021/01/05 10:16:21;;;;;;;34.75;19.05;;;2.10;99.90;;;;;;4981594;28;20027;-91
2021/01/05 10:18:47;;;;;;;33.72;19.58;;;2.00;99.90;;;;;;4980495;28;20023;-87
2021/01/05 10:21:13;;;;;;;34.03;18.33;;;2.00;99.90;;;;;;4979187;28;20400;-90
2021/01/05 10:23:40;;;;;;;33.85;20.38;;;2.10;99.90;;;;;;4976207;28;20077;-85
2021/01/05 10:26:05;;;;;;;35.97;20.02;;;2.10;99.90;;;;;;4975639;28;20050;-85
2021/01/05 10:28:31;;;;;;;35.22;21.15;;;2.10;99.90;;;;;;4975526;28;20065;-85
2021/01/05 10:30:57;;;;;;;35.53;21.13;;;2.00;99.90;;;;;;4975628;28;20033;-85
2021/01/05 10:33:22;;;;;;;34.70;20.15;;;2.10;99.90;;;;;;4976640;28;20082;-85
2021/01/05 10:35:49;;;;;;;35.10;20.52;;;2.00;99.90;;;;;;4975073;28;20043;-85
2021/01/05 10:38:15;;;;;;;40.50;21.92;;;2.00;99.90;;;;;;4976460;28;20053;-84
2021/01/05 10:40:40;;;;;;;40.80;24.30;;;2.00;99.90;;;;;;4976273;28;20102;-84
2021/01/05 10:43:06;;;;;;;39.28;22.65;;;2.00;99.90;;;;;;4975207;28;20065;-83
2021/01/05 10:45:40;;;;;;;32.58;19.85;;;2.10;99.90;;;;;;4975189;28;20027;-82
2021/01/05 10:48:06;;;;;;;;;;;2.10;99.90;;;;;;4975474;28;20034;-83
2021/01/05 10:50:37;;;;;;;39.05;22.98;;;2.10;99.90;;;;;;4974991;28;20392;-82
2021/01/05 10:53:03;;;;;;;37.72;21.02;;;2.00;99.90;;;;;;4976617;28;20031;-82
2021/01/05 10:55:29;;;;;;;40.60;23.58;;;1.90;99.90;;;;;;4976192;28;20178;-82
2021/01/05 10:57:54;;;;;;;37.72;20.88;;;1.90;99.90;;;;;;4974848;28;20050;-82
2021/01/05 11:00:21;;;;;;;42.25;23.42;;;1.80;99.90;;;;;;4990880;28;20031;-83
2021/01/05 11:02:53;;;;;;;40.78;24.83;;;1.90;99.90;;;;;;4974748;28;20113;-83
2021/01/05 11:05:18;;;;;;;53.13;29.88;;;1.80;99.90;;;;;;4974710;28;20022;-83
2021/01/05 11:07:51;;;;;;;36.75;21.23;;;1.80;99.90;;;;;;4974645;28;20482;-84
2021/01/05 11:10:18;;;;;;;37.85;21.50;;;1.90;99.90;;;;;;4974579;28;20166;-83
2021/01/05 11:12:44;;;;;;;33.42;19.73;;;2.00;99.90;;;;;;4975824;28;20031;-83
2021/01/05 11:15:16;;;;;;;34.63;19.83;;;2.10;99.90;;;;;;4976032;28;20467;-83
2021/01/05 11:17:45;;;;;;;34.33;20.17;;;2.10;99.90;;;;;;4974231;28;20090;-82
2021/01/05 11:20:14;;;;;;;37.95;20.67;;;2.10;99.90;;;;;;4974645;28;20165;-82
2021/01/05 11:22:41;;;;;;;35.42;20.13;;;2.20;99.90;;;;;;4975651;28;20023;-84
2021/01/05 11:25:12;;;;;;;36.95;19.50;;;2.20;99.90;;;;;;4990662;28;20450;-83
2021/01/05 11:27:37;;;;;;;30.17;17.67;;;2.40;99.90;;;;;;4975594;28;20046;-84
2021/01/05 11:30:05;;;;;;;32.10;18.95;;;2.50;99.90;;;;;;4974316;28;20054;-82
2021/01/05 11:32:31;;;;;;;30.85;17.60;;;2.60;99.90;;;;;;4975424;28;20040;-83
2021/01/05 11:34:56;;;;;;;32.00;19.40;;;2.60;99.90;;;;;;4974121;28;20022;-83
2021/01/05 11:37:23;;;;;;;34.55;19.88;;;2.40;99.90;;;;;;4974064;28;20093;-83
2021/01/05 11:39:51;;;;;;;36.65;20.30;;;2.30;99.90;;;;;;4975352;28;20109;-84
2021/01/05 11:42:21;;;;;;;34.22;20.50;;;2.20;99.90;;;;;;4973919;28;20073;-84
2021/01/05 11:44:48;;;;;;;33.47;18.83;;;2.20;99.90;;;;;;4974044;28;20023;-85
2021/01/05 11:47:17;;;;;;;35.83;18.50;;;2.30;99.90;;;;;;4974097;28;20031;-84
2021/01/05 11:49:43;;;;;;;31.48;18.83;;;2.30;99.90;;;;;;4973895;28;20483;-83
2021/01/05 11:52:10;;;;;;;33.78;20.52;;;2.30;99.90;;;;;;4973874;28;20085;-82
2021/01/05 11:54:36;;;;;;;37.45;21.42;;;2.30;99.90;;;;;;4973836;28;20114;-85
2021/01/05 11:57:02;;;;;;;41.15;22.65;;;2.20;99.90;;;;;;4973860;28;20442;-85
2021/01/05 11:59:30;;;;;;;35.35;19.80;;;2.20;99.90;;;;;;4973799;28;20077;-84
2021/01/05 12:02:02;;;;;;;31.63;18.92;;;2.40;99.90;;;;;;4973664;28;20023;-82
2021/01/05 12:04:28;;;;;;;37.35;20.00;;;2.40;99.90;;;;;;4973775;28;20027;-83
2021/01/05 12:06:55;;;;;;;33.47;18.27;;;2.50;99.90;;;;;;4973550;28;20036;-85
2021/01/05 12:09:24;;;;;;;33.10;19.90;;;2.40;99.90;;;;;;4989962;28;20023;-85
2021/01/05 12:11:58;;;;;;;31.20;18.52;;;2.30;99.90;;;;;;4973671;28;20122;-85
2021/01/05 12:14:24;;;;;;;42.72;23.20;;;2.10;99.90;;;;;;4973558;28;20510;-85
2021/01/05 12:16:50;;;;;;;31.88;18.65;;;2.00;99.90;;;;;;4974043;28;20047;-85
2021/01/05 12:19:25;;;;;;;36.00;20.17;;;2.10;99.90;;;;;;4975030;28;20038;-87
2021/01/05 12:21:54;;;;;;;35.83;20.63;;;2.10;99.90;;;;;;4973341;28;20025;-85
2021/01/05 12:24:22;;;;;;;34.33;18.50;;;2.00;99.90;;;;;;4973258;28;20031;-85
2021/01/05 12:26:49;;;;;;;35.90;20.52;;;2.00;99.90;;;;;;4974613;28;20019;-85
2021/01/05 12:29:16;;;;;;;34.00;19.33;;;2.10;99.90;;;;;;4973163;28;20027;-88
2021/01/05 12:31:48;;;;;;;34.40;20.35;;;2.10;99.90;;;;;;4989438;28;20081;-85
2021/01/05 12:34:16;;;;;;;31.88;18.80;;;2.10;99.90;;;;;;4974758;28;20023;-86
2021/01/05 12:36:43;;;;;;;30.48;18.40;;;2.00;99.90;;;;;;4973744;28;20039;-84
2021/01/05 12:39:14;;;;;;;30.45;19.38;;;2.00;99.90;;;;;;4973577;28;20033;-87
2021/01/05 12:41:40;;;;;;;35.38;19.42;;;2.00;99.90;;;;;;4973285;28;20434;-87
2021/01/05 12:44:08;;;;;;;31.40;18.15;;;2.00;99.90;;;;;;4973266;28;20023;-86
2021/01/05 12:46:37;;;;;;;32.20;19.30;;;2.00;99.90;;;;;;4973474;28;20434;-87
2021/01/05 12:49:04;;;;;;;36.15;19.15;;;2.10;99.90;;;;;;4974042;28;20478;-86
2021/01/05 12:51:32;;;;;;;34.35;17.95;;;2.10;99.90;;;;;;4973301;28;20145;-85
2021/01/05 12:53:58;;;;;;;35.90;20.60;;;2.10;99.90;;;;;;4973701;28;20027;-90